首页
METAR-TAF:

METAR-TAF

机场 :

雷克雅維克, 冰岛

纬度: 64-08N, 经度: 021-54W, 海拔: 54米

当前天气观测

该预报发布于20分钟前的21:00 UTC
风速14节,风向西
温度 7°C
湿度 70%
气压 995 hPa
能见度10公里或以上
少量云层高于2600英尺
散云层高于3100英尺
多云层高于4300英尺

METAR: BIRK 202100Z 27014KT 9999 FEW026 SCT031 BKN043 07/02 Q0995

时间: 21:20 (21:20 UTC)

预报

该预报发布于1小时和21分钟前的19:59 UTC
预报有效从20日的 21点(UTC)到 21日的 21点(UTC)
风速18节,风向西转西南
能见度10公里或以上
散云层高于2000英尺
多云层高于3500英尺
小阵雨
成为
从 21日的 05点(UTC)到 21日的 07点(UTC)
风速9节,风向
短暂存在
从 21日的 07点(UTC)到 21日的 21点(UTC)
风速27节,风向西南,有时为37节阵风
少量云层高于1500英尺, 积雨云.
多云层高于2200英尺
成为
从 21日的 09点(UTC)到 21日的 11点(UTC)
风速22节,风向西南

TAF: BIRK 201959Z 2021/2121 25018KT 9999 -SHRA SCT020 BKN035 TX07/2115Z TN05/2106Z BECMG 2105/2107 18009KT TEMPO 2107/2121 23027G37KT FEW015CB BKN022 BECMG 2109/2111 22022KT

超过4000个机场的气象观测和天气预报(METAR&TAF报告)。

可查询的气象台以黄色和红色小点在地图上表示。

将鼠标移到小点上方,可查看气象台名称。

然后点击查看天气观测和预报。

如需切换地图:点击带黑十字的绿色按钮放大地图;点击带横线的绿色按钮缩小地图;或者点击绿色箭头查看邻近地区的地图。


METAR-TAF: